Time;durP1;ratioP1;P1;durP2;ratioP2;P2;SDS_P1;SDS_P2;PMS_P1;PMS_P2;Temp;Humidity;BMP_temperature;BMP_pressure;BME280_temperature;BME280_humidity;BME280_pressure;Samples;Min_cycle;Max_cycle;Signal;HPM_P1;HPM_P2
2022/09/08 00:00:40;;;;;;;16.27;8.93;;;;;;;;;;4951682;28;20038;-86
2022/09/08 00:03:09;;;;;;;16.17;9.40;;;;;;;;;;4954100;28;20442;-86
2022/09/08 00:05:38;;;;;;;16.48;8.85;;;;;;;;;;4962950;28;20027;-86
2022/09/08 00:08:04;;;;;;;14.52;9.13;;;;;;;;;;4963751;28;20037;-86
2022/09/08 00:10:30;;;;;;;15.45;8.85;;;;;;;;;;4977142;28;20031;-85
2022/09/08 00:12:57;;;;;;;14.30;9.38;;;;;;;;;;4946261;28;20871;-86
2022/09/08 00:15:23;;;;;;;14.90;9.50;;;;;;;;;;4964746;28;20129;-85
2022/09/08 00:17:49;;;;;;;15.07;9.90;;;;;;;;;;4943404;28;20073;-87
2022/09/08 00:20:15;;;;;;;19.45;11.38;;;;;;;;;;4960617;28;20128;-87
2022/09/08 00:22:42;;;;;;;16.33;11.93;;;;;;;;;;4959179;28;20045;-85
2022/09/08 00:25:08;;;;;;;23.27;12.00;;;;;;;;;;4949258;28;20022;-88
2022/09/08 00:27:34;;;;;;;27.88;13.73;;;;;;;;;;4957760;28;20462;-87
2022/09/08 00:30:00;;;;;;;21.95;13.50;;;;;;;;;;4960501;28;20121;-86
2022/09/08 00:32:26;;;;;;;24.98;13.85;;;;;;;;;;4958836;28;20026;-86
2022/09/08 00:34:52;;;;;;;27.13;14.30;;;;;;;;;;4960042;28;20089;-86
2022/09/08 00:37:18;;;;;;;22.25;15.95;;;;;;;;;;4944405;28;20053;-87
2022/09/08 00:39:46;;;;;;;26.63;14.88;;;;;;;;;;4947503;28;20058;-85
2022/09/08 00:42:12;;;;;;;27.13;16.60;;;;;;;;;;4953279;28;20053;-85
2022/09/08 00:44:49;;;;;;;29.02;16.02;;;;;;;;;;4944861;28;20580;-85
2022/09/08 00:47:30;;;;;;;26.65;17.70;;;;;;;;;;4964077;28;20463;-86
2022/09/08 00:50:05;;;;;;;26.17;18.42;;;;;;;;;;4966912;28;20057;-86
2022/09/08 00:52:33;;;;;;;33.63;17.67;;;;;;;;;;4963224;28;20085;-86
2022/09/08 00:55:00;;;;;;;28.42;18.05;;;;;;;;;;4976989;28;20105;-86
2022/09/08 00:57:26;;;;;;;33.63;19.20;;;;;;;;;;4958420;28;20117;-88
2022/09/08 00:59:53;;;;;;;38.80;20.35;;;;;;;;;;4951064;28;20541;-86
2022/09/08 01:02:25;;;;;;;33.30;20.08;;;;;;;;;;4944140;28;20516;-87
2022/09/08 01:05:04;;;;;;;31.35;18.70;;;;;;;;;;4959071;28;20030;-86
2022/09/08 01:13:09;;;;;;;37.35;21.90;;;;;;;;;;4979076;28;20049;-85
2022/09/08 01:15:35;;;;;;;43.25;22.67;;;;;;;;;;4943798;28;20078;-86
2022/09/08 01:18:01;;;;;;;35.45;22.10;;;;;;;;;;4942168;28;20125;-87
2022/09/08 01:20:31;;;;;;;35.10;23.05;;;;;;;;;;4974640;28;20034;-86
2022/09/08 01:23:17;;;;;;;36.50;22.83;;;;;;;;;;4961704;28;20026;-86
2022/09/08 01:25:43;;;;;;;;;;;;;;;;;;4961721;28;20038;-86
2022/09/08 01:28:12;;;;;;;35.58;23.23;;;;;;;;;;4956825;28;19910;-86
2022/09/08 01:30:39;;;;;;;37.10;23.95;;;;;;;;;;4960163;28;20497;-86
2022/09/08 01:33:06;;;;;;;41.90;25.52;;;;;;;;;;4942942;28;20402;-86
2022/09/08 01:35:39;;;;;;;44.25;25.67;;;;;;;;;;4959512;28;21253;-86
2022/09/08 01:38:06;;;;;;;38.92;24.20;;;;;;;;;;4962650;28;20035;-86
2022/09/08 01:40:32;;;;;;;41.88;26.92;;;;;;;;;;4960999;28;20066;-86
2022/09/08 01:42:58;;;;;;;37.05;24.65;;;;;;;;;;4968856;28;20084;-86
2022/09/08 01:45:27;;;;;;;48.42;26.58;;;;;;;;;;4943758;28;20124;-86
2022/09/08 01:47:53;;;;;;;48.05;27.63;;;;;;;;;;4973329;28;20054;-86
2022/09/08 01:50:19;;;;;;;42.28;27.75;;;;;;;;;;4948789;28;20039;-87
2022/09/08 01:52:45;;;;;;;45.78;27.75;;;;;;;;;;4948306;28;20035;-86
2022/09/08 01:55:11;;;;;;;41.17;25.73;;;;;;;;;;4964656;28;20189;-86
2022/09/08 01:57:38;;;;;;;47.03;27.08;;;;;;;;;;4967554;28;20137;-85
2022/09/08 02:00:07;;;;;;;44.88;26.95;;;;;;;;;;4958449;28;22562;-86
2022/09/08 02:02:34;;;;;;;46.83;27.80;;;;;;;;;;4959709;28;20510;-85
2022/09/08 02:05:00;;;;;;;42.42;28.38;;;;;;;;;;4963995;28;20026;-85
2022/09/08 02:07:26;;;;;;;42.15;27.27;;;;;;;;;;4961240;28;20045;-85
2022/09/08 02:09:53;;;;;;;45.30;28.20;;;;;;;;;;4960222;28;21153;-85
2022/09/08 02:12:19;;;;;;;46.55;28.83;;;;;;;;;;4960362;28;20062;-86
2022/09/08 02:14:46;;;;;;;48.85;28.67;;;;;;;;;;4963231;28;20081;-87
2022/09/08 02:17:16;;;;;;;42.35;27.38;;;;;;;;;;4958126;28;20053;-86
2022/09/08 02:23:05;;;;;;;46.58;27.92;;;;;;;;;;4977789;28;20612;-86
2022/09/08 02:25:34;;;;;;;50.67;28.27;;;;;;;;;;4968266;28;20035;-85
2022/09/08 02:33:19;;;;;;;48.42;28.27;;;;;;;;;;4962652;28;19922;-85
2022/09/08 02:35:45;;;;;;;51.13;31.50;;;;;;;;;;4964776;28;20130;-85
2022/09/08 02:38:20;;;;;;;46.97;29.00;;;;;;;;;;4936913;28;20051;-86
2022/09/08 02:40:49;;;;;;;45.45;28.30;;;;;;;;;;4951607;28;20047;-85
2022/09/08 02:43:15;;;;;;;46.35;28.08;;;;;;;;;;4950400;28;20043;-85
2022/09/08 02:46:04;;;;;;;48.33;29.77;;;;;;;;;;4964281;28;20117;-85
2022/09/08 02:52:33;;;;;;;;;;;;;;;;;;;;;
2022/09/08 03:01:33;;;;;;;51.75;31.55;;;;;;;;;;4897305;28;20043;-85
2022/09/08 03:07:02;;;;;;;54.42;31.40;;;;;;;;;;4960138;28;20043;-85
2022/09/08 03:10:04;;;;;;;56.40;34.42;;;;;;;;;;4962529;28;20121;-87
2022/09/08 03:12:32;;;;;;;59.67;34.70;;;;;;;;;;4872086;28;20081;-85
2022/09/08 03:15:28;;;;;;;54.58;32.20;;;;;;;;;;4963048;28;20129;-85
2022/09/08 03:18:09;;;;;;;;;;;;;;;;;;;;;
2022/09/08 03:24:03;;;;;;;53.75;33.42;;;;;;;;;;4964579;28;20032;-85
2022/09/08 03:26:44;;;;;;;60.60;34.67;;;;;;;;;;4940535;28;20105;-85
2022/09/08 03:29:53;;;;;;;;;;;;;;;;;;;;;
2022/09/08 03:32:43;;;;;;;55.13;34.63;;;;;;;;;;4962870;28;20073;-86
2022/09/08 03:35:31;;;;;;;;;;;;;;;;;;;;;
2022/09/08 03:38:06;;;;;;;71.15;39.75;;;;;;;;;;4964728;28;20050;-86
2022/09/08 03:44:06;;;;;;;59.33;36.28;;;;;;;;;;4965313;28;20089;-86
2022/09/08 03:50:21;;;;;;;63.15;38.33;;;;;;;;;;4926705;29;20551;-86
2022/09/08 03:53:18;;;;;;;68.95;40.50;;;;;;;;;;4897297;28;20036;-85
2022/09/08 03:59:09;;;;;;;61.47;38.65;;;;;;;;;;4912131;28;20477;-85
2022/09/08 04:01:35;;;;;;;62.88;37.42;;;;;;;;;;4968424;28;20069;-85
2022/09/08 04:04:01;;;;;;;62.03;38.15;;;;;;;;;;4967868;28;20030;-85
2022/09/08 04:06:29;;;;;;;65.68;37.88;;;;;;;;;;4968376;28;20034;-86
2022/09/08 04:08:55;;;;;;;65.80;39.97;;;;;;;;;;4960637;28;20031;-85
2022/09/08 04:11:23;;;;;;;61.80;38.35;;;;;;;;;;4968309;28;20027;-85
2022/09/08 04:13:50;;;;;;;63.83;39.20;;;;;;;;;;4945797;28;20041;-86
2022/09/08 04:16:16;;;;;;;69.30;40.92;;;;;;;;;;4947910;28;20031;-86
2022/09/08 04:18:43;;;;;;;70.38;39.67;;;;;;;;;;4947387;28;20039;-85
2022/09/08 04:21:10;;;;;;;70.00;39.97;;;;;;;;;;4948008;28;20089;-86
2022/09/08 04:23:37;;;;;;;67.00;40.05;;;;;;;;;;4964738;28;20546;-85
2022/09/08 04:26:08;;;;;;;62.67;39.00;;;;;;;;;;4962890;28;20034;-86
2022/09/08 04:28:35;;;;;;;59.85;37.83;;;;;;;;;;4966423;28;20062;-86
2022/09/08 04:31:05;;;;;;;70.45;39.53;;;;;;;;;;4964445;28;20030;-86
2022/09/08 04:33:31;;;;;;;66.95;38.65;;;;;;;;;;4962332;28;20135;-86
2022/09/08 04:35:58;;;;;;;63.53;38.30;;;;;;;;;;4962239;28;20374;-86
2022/09/08 04:38:24;;;;;;;65.22;38.65;;;;;;;;;;4960909;28;20038;-86
2022/09/08 04:40:50;;;;;;;64.88;38.03;;;;;;;;;;4963049;28;20115;-86
2022/09/08 04:43:16;;;;;;;69.60;40.85;;;;;;;;;;4949969;28;20089;-85
2022/09/08 04:45:42;;;;;;;63.80;38.58;;;;;;;;;;4959368;28;20031;-85
2022/09/08 04:48:08;;;;;;;62.72;39.08;;;;;;;;;;4961901;28;20406;-85
2022/09/08 04:50:34;;;;;;;66.93;39.55;;;;;;;;;;4963363;28;20540;-84
2022/09/08 04:53:00;;;;;;;65.13;38.95;;;;;;;;;;4946625;28;20513;-85
2022/09/08 04:55:26;;;;;;;70.07;40.25;;;;;;;;;;4962464;28;20465;-86
2022/09/08 04:57:53;;;;;;;67.32;41.13;;;;;;;;;;4958801;28;20433;-86
2022/09/08 05:00:19;;;;;;;68.93;39.95;;;;;;;;;;4962987;28;20031;-87
2022/09/08 05:02:46;;;;;;;67.85;38.28;;;;;;;;;;4942494;28;20042;-85
2022/09/08 05:05:12;;;;;;;67.03;39.78;;;;;;;;;;4980877;28;20018;-86
2022/09/08 05:07:38;;;;;;;71.95;43.05;;;;;;;;;;4961526;28;20054;-85
2022/09/08 05:10:06;;;;;;;69.95;42.42;;;;;;;;;;4961934;28;20558;-87
2022/09/08 05:12:32;;;;;;;70.40;42.15;;;;;;;;;;4960727;28;20035;-85
2022/09/08 05:14:58;;;;;;;79.35;44.85;;;;;;;;;;4959314;28;20053;-86
2022/09/08 05:17:24;;;;;;;71.93;41.53;;;;;;;;;;4949636;28;20064;-86
2022/09/08 05:19:51;;;;;;;71.90;43.42;;;;;;;;;;4954856;28;20517;-85
2022/09/08 05:22:17;;;;;;;73.72;42.08;;;;;;;;;;4969254;28;20034;-85
2022/09/08 05:24:43;;;;;;;78.35;45.42;;;;;;;;;;4964769;28;20027;-85
2022/09/08 05:27:09;;;;;;;71.75;43.55;;;;;;;;;;4963481;28;20062;-86
2022/09/08 05:29:35;;;;;;;73.72;43.35;;;;;;;;;;4948682;28;20042;-86
2022/09/08 05:32:01;;;;;;;68.53;42.40;;;;;;;;;;4949911;28;20054;-86
2022/09/08 05:34:27;;;;;;;75.90;43.70;;;;;;;;;;4950441;28;20038;-85
2022/09/08 05:36:53;;;;;;;69.00;41.42;;;;;;;;;;4951113;28;20035;-85
2022/09/08 05:39:19;;;;;;;64.63;41.47;;;;;;;;;;4948627;28;20046;-84
2022/09/08 05:41:45;;;;;;;68.60;42.78;;;;;;;;;;4966970;28;20022;-84
2022/09/08 05:44:13;;;;;;;68.45;41.38;;;;;;;;;;4948079;28;20030;-84
2022/09/08 05:46:39;;;;;;;69.32;42.47;;;;;;;;;;4964642;28;20098;-84
2022/09/08 05:49:05;;;;;;;68.28;41.58;;;;;;;;;;4963231;28;20101;-85
2022/09/08 05:51:32;;;;;;;71.03;41.63;;;;;;;;;;4946535;28;20059;-84
2022/09/08 05:53:59;;;;;;;64.10;39.70;;;;;;;;;;4963208;28;20664;-84
2022/09/08 05:56:25;;;;;;;61.47;38.47;;;;;;;;;;4960258;28;20035;-85
2022/09/08 05:58:52;;;;;;;62.40;38.90;;;;;;;;;;4940923;28;20097;-84
2022/09/08 06:01:18;;;;;;;59.92;39.00;;;;;;;;;;4954889;28;20023;-85
2022/09/08 06:03:45;;;;;;;65.93;37.42;;;;;;;;;;4946662;28;20042;-87
2022/09/08 06:06:13;;;;;;;62.78;39.60;;;;;;;;;;4961503;28;20034;-83
2022/09/08 06:08:40;;;;;;;64.10;38.75;;;;;;;;;;4958926;28;20030;-85
2022/09/08 06:11:06;;;;;;;62.72;37.33;;;;;;;;;;4961232;28;20046;-84
2022/09/08 06:13:33;;;;;;;67.50;38.70;;;;;;;;;;4964616;28;20038;-86
2022/09/08 06:16:04;;;;;;;64.05;38.30;;;;;;;;;;4960246;28;20078;-84
2022/09/08 06:18:32;;;;;;;62.83;37.92;;;;;;;;;;4963554;28;20038;-84
2022/09/08 06:20:59;;;;;;;58.55;38.15;;;;;;;;;;4961355;28;20395;-83
2022/09/08 06:23:25;;;;;;;58.30;37.38;;;;;;;;;;4966140;28;20031;-84
2022/09/08 06:25:51;;;;;;;66.10;39.42;;;;;;;;;;4947789;28;20027;-83
2022/09/08 06:28:25;;;;;;;61.72;39.35;;;;;;;;;;4965755;28;20022;-83
2022/09/08 06:30:53;;;;;;;67.28;42.08;;;;;;;;;;4965312;28;20027;-84
2022/09/08 06:33:24;;;;;;;62.70;40.13;;;;;;;;;;4943198;28;20074;-84
2022/09/08 06:36:10;;;;;;;64.60;40.45;;;;;;;;;;4931610;28;20491;-84
2022/09/08 06:38:36;;;;;;;;;;;;;;;;;;4931218;29;20031;-84
2022/09/08 06:41:05;;;;;;;69.82;40.60;;;;;;;;;;4931170;28;19981;-84
2022/09/08 06:43:45;;;;;;;60.53;36.95;;;;;;;;;;4957187;28;20030;-85
2022/09/08 06:46:17;;;;;;;63.15;38.63;;;;;;;;;;4962983;28;20050;-85
2022/09/08 06:48:44;;;;;;;58.78;36.63;;;;;;;;;;4963443;28;20031;-84
2022/09/08 06:51:19;;;;;;;61.28;34.65;;;;;;;;;;4937972;28;20043;-84
2022/09/08 06:53:51;;;;;;;65.30;36.35;;;;;;;;;;4951707;28;20022;-85
2022/09/08 06:56:30;;;;;;;71.95;40.95;;;;;;;;;;4949935;28;20426;-84
2022/09/08 06:59:03;;;;;;;66.40;40.88;;;;;;;;;;4947891;28;20462;-85
2022/09/08 07:01:49;;;;;;;74.47;41.67;;;;;;;;;;4936891;28;20556;-85
2022/09/08 07:04:15;;;;;;;;;;;;;;;;;;4966660;28;20038;-85
2022/09/08 07:06:49;;;;;;;70.32;40.28;;;;;;;;;;4966114;28;19921;-85
2022/09/08 07:09:28;;;;;;;73.75;43.40;;;;;;;;;;4946523;28;20399;-86
2022/09/08 07:11:59;;;;;;;77.05;46.30;;;;;;;;;;4951673;28;20479;-85
2022/09/08 07:14:34;;;;;;;81.18;45.10;;;;;;;;;;4947680;28;20035;-85
2022/09/08 07:17:12;;;;;;;82.05;48.15;;;;;;;;;;4947847;28;20039;-86
2022/09/08 07:19:38;;;;;;;80.57;43.42;;;;;;;;;;4962949;28;20109;-88
2022/09/08 07:22:12;;;;;;;89.30;47.58;;;;;;;;;;4952243;28;20113;-88
2022/09/08 07:24:40;;;;;;;88.15;47.88;;;;;;;;;;4941371;28;20094;-87
2022/09/08 07:27:07;;;;;;;96.05;48.83;;;;;;;;;;4948304;28;20026;-86
2022/09/08 07:32:15;;;;;;;;;;;;;;;;;;5050641;23;20146;-95
2022/09/08 07:34:49;;;;;;;86.45;46.53;;;;;;;;;;4938598;28;19985;-95
2022/09/08 07:37:29;;;;;;;92.38;48.95;;;;;;;;;;4937670;28;20031;-94
2022/09/08 07:39:59;;;;;;;99.88;50.83;;;;;;;;;;4946427;28;20475;-94
2022/09/08 07:42:26;;;;;;;101.90;51.67;;;;;;;;;;4939042;28;20026;-94
2022/09/08 07:44:57;;;;;;;107.63;54.83;;;;;;;;;;4939152;28;20098;-94
2022/09/08 07:47:26;;;;;;;106.97;52.85;;;;;;;;;;4947172;28;20039;-94
2022/09/08 07:50:06;;;;;;;107.20;55.03;;;;;;;;;;4954785;28;20031;-93
2022/09/08 07:52:47;;;;;;;92.28;47.53;;;;;;;;;;4939496;29;20035;-93
2022/09/08 07:55:32;;;;;;;109.40;52.10;;;;;;;;;;4957330;28;20027;-93
2022/09/08 07:58:02;;;;;;;105.10;49.92;;;;;;;;;;4942392;29;20035;-92
2022/09/08 08:00:28;;;;;;;93.32;48.00;;;;;;;;;;4958414;28;20047;-91
2022/09/08 08:03:05;;;;;;;92.40;45.50;;;;;;;;;;4951863;28;20244;-92
2022/09/08 08:05:39;;;;;;;82.72;41.35;;;;;;;;;;4964969;28;20039;-93
2022/09/08 08:08:24;;;;;;;86.75;42.58;;;;;;;;;;4970042;28;20025;-91
2022/09/08 08:10:56;;;;;;;86.18;43.85;;;;;;;;;;4957976;28;20041;-93
2022/09/08 08:13:22;;;;;;;98.72;41.85;;;;;;;;;;4943126;29;20730;-93
2022/09/08 08:16:00;;;;;;;87.03;42.80;;;;;;;;;;4951721;28;20060;-93
2022/09/08 08:18:35;;;;;;;82.20;41.22;;;;;;;;;;4945104;29;20065;-93
2022/09/08 08:21:05;;;;;;;87.47;42.73;;;;;;;;;;4931483;28;20047;-96
2022/09/08 08:23:34;;;;;;;86.55;42.17;;;;;;;;;;4942942;28;20405;-95
2022/09/08 08:26:04;;;;;;;86.95;40.35;;;;;;;;;;4941362;28;20522;-95
2022/09/08 08:28:33;;;;;;;120.82;41.60;;;;;;;;;;4943452;29;20039;-96
2022/09/08 08:31:06;;;;;;;80.72;38.38;;;;;;;;;;4948822;28;20031;-95
2022/09/08 08:33:35;;;;;;;82.05;36.47;;;;;;;;;;4954415;28;20079;-96
2022/09/08 08:36:04;;;;;;;87.22;37.65;;;;;;;;;;4962829;28;20031;-96
2022/09/08 08:38:33;;;;;;;89.80;38.95;;;;;;;;;;4950134;29;20095;-96
2022/09/08 08:40:59;;;;;;;79.53;37.72;;;;;;;;;;4947977;29;20112;-96
2022/09/08 08:43:25;;;;;;;81.82;37.80;;;;;;;;;;4928477;29;20023;-96
2022/09/08 08:45:54;;;;;;;83.75;40.22;;;;;;;;;;4960927;29;20147;-95
2022/09/08 08:48:35;;;;;;;90.30;38.72;;;;;;;;;;4949064;29;20449;-95
2022/09/08 08:51:20;;;;;;;80.78;39.65;;;;;;;;;;4962102;29;20055;-95
2022/09/08 08:53:49;;;;;;;87.15;39.75;;;;;;;;;;4946710;29;20371;-96
2022/09/08 08:56:15;;;;;;;70.03;37.40;;;;;;;;;;4946780;29;20031;-96
2022/09/08 08:59:00;;;;;;;79.53;38.65;;;;;;;;;;4946831;29;20116;-96
2022/09/08 09:01:33;;;;;;;76.22;38.53;;;;;;;;;;4948094;29;20035;-96
2022/09/08 09:04:28;;;;;;;79.15;38.75;;;;;;;;;;4951962;29;20027;-96
2022/09/08 09:07:02;;;;;;;75.00;37.70;;;;;;;;;;4870023;29;20046;-96
2022/09/08 09:09:28;;;;;;;80.10;38.30;;;;;;;;;;4952159;29;20063;-96
2022/09/08 09:12:00;;;;;;;82.47;39.53;;;;;;;;;;4957663;29;20050;-95
2022/09/08 09:14:29;;;;;;;76.55;35.72;;;;;;;;;;4958445;29;20044;-96
2022/09/08 09:17:15;;;;;;;84.82;39.53;;;;;;;;;;4957709;29;20089;-95
2022/09/08 09:20:00;;;;;;;84.97;39.38;;;;;;;;;;4958211;29;20067;-96
2022/09/08 09:22:33;;;;;;;69.32;33.40;;;;;;;;;;4956825;29;20031;-96
2022/09/08 09:25:14;;;;;;;84.80;39.50;;;;;;;;;;4947263;29;20028;-96
2022/09/08 09:27:43;;;;;;;69.38;34.50;;;;;;;;;;4939290;29;20096;-96
2022/09/08 09:30:12;;;;;;;86.50;36.10;;;;;;;;;;4952163;29;20046;-96
2022/09/08 09:32:54;;;;;;;77.50;34.20;;;;;;;;;;4956504;28;20047;-96
2022/09/08 09:35:23;;;;;;;73.10;33.30;;;;;;;;;;4971673;29;20035;-96
2022/09/08 09:37:49;;;;;;;64.65;31.45;;;;;;;;;;4956103;29;20022;-96
2022/09/08 09:40:26;;;;;;;67.60;30.83;;;;;;;;;;4957711;28;20098;-96
2022/09/08 09:43:11;;;;;;;68.68;32.47;;;;;;;;;;4954770;29;20032;-96
2022/09/08 09:45:41;;;;;;;68.80;33.00;;;;;;;;;;4956170;29;20017;-96
2022/09/08 09:48:25;;;;;;;69.32;33.75;;;;;;;;;;4956233;29;20023;-96
2022/09/08 09:50:57;;;;;;;65.47;32.15;;;;;;;;;;4955180;28;20509;-96
2022/09/08 09:53:38;;;;;;;70.40;33.22;;;;;;;;;;4958939;29;20063;-96
2022/09/08 09:56:35;;;;;;;66.07;32.28;;;;;;;;;;4959984;29;20054;-96
2022/09/08 09:59:04;;;;;;;65.97;30.70;;;;;;;;;;4961468;29;20031;-96
2022/09/08 10:01:36;;;;;;;70.70;31.20;;;;;;;;;;4961454;29;20032;-96
2022/09/08 10:04:07;;;;;;;72.32;31.05;;;;;;;;;;4959789;29;20039;-96
2022/09/08 10:06:42;;;;;;;64.60;29.08;;;;;;;;;;4959496;29;20026;-96
2022/09/08 10:09:26;;;;;;;58.90;27.55;;;;;;;;;;4963002;29;20028;-96
2022/09/08 10:12:20;;;;;;;60.80;27.67;;;;;;;;;;4979065;29;20027;-96
2022/09/08 10:15:25;;;;;;;55.80;24.55;;;;;;;;;;4978240;28;20042;-96
2022/09/08 10:18:17;;;;;;;47.67;23.63;;;;;;;;;;4974012;28;20091;-96
2022/09/08 10:21:03;;;;;;;46.55;23.60;;;;;;;;;;4969063;23;20057;-91
2022/09/08 10:23:40;;;;;;;29.65;17.45;;;;;;;;;;4937662;29;20121;-89
2022/09/08 10:26:09;;;;;;;35.53;16.58;;;;;;;;;;4933337;29;20023;-90
2022/09/08 10:28:38;;;;;;;33.28;18.67;;;;;;;;;;4934258;29;20042;-90
2022/09/08 10:31:13;;;;;;;35.78;17.27;;;;;;;;;;4936724;29;20039;-89
2022/09/08 10:33:50;;;;;;;35.47;17.30;;;;;;;;;;4953117;28;20038;-90
2022/09/08 10:36:17;;;;;;;27.85;14.02;;;;;;;;;;4932969;29;20103;-91
2022/09/08 10:38:44;;;;;;;28.63;13.73;;;;;;;;;;4914563;29;20061;-91
2022/09/08 10:41:29;;;;;;;27.45;13.35;;;;;;;;;;4932186;29;20102;-91
2022/09/08 10:44:18;;;;;;;26.00;12.93;;;;;;;;;;4939550;29;20055;-90
2022/09/08 10:47:04;;;;;;;23.13;13.25;;;;;;;;;;4939576;29;20031;-89
2022/09/08 10:49:49;;;;;;;24.88;13.15;;;;;;;;;;4943055;29;20039;-91
2022/09/08 10:52:34;;;;;;;20.92;11.57;;;;;;;;;;4938332;28;20134;-91
2022/09/08 10:55:27;;;;;;;12.60;9.35;;;;;;;;;;4947004;29;20086;-92
2022/09/08 10:58:15;;;;;;;14.82;8.52;;;;;;;;;;4972141;28;20033;-91
2022/09/08 11:01:04;;;;;;;16.23;8.60;;;;;;;;;;4942024;28;20395;-92
2022/09/08 11:03:36;;;;;;;17.80;8.57;;;;;;;;;;4918689;29;20055;-92
2022/09/08 11:06:02;;;;;;;11.10;8.27;;;;;;;;;;4935780;28;20130;-91
2022/09/08 11:08:47;;;;;;;10.95;7.55;;;;;;;;;;4931975;29;20163;-91
2022/09/08 11:11:28;;;;;;;10.15;6.75;;;;;;;;;;4949881;28;20078;-90
2022/09/08 11:14:04;;;;;;;10.50;6.07;;;;;;;;;;4934263;29;20452;-91
2022/09/08 11:16:30;;;;;;;;;;;;;;;;;;4932045;29;20031;-90
2022/09/08 11:19:08;;;;;;;13.02;6.03;;;;;;;;;;4936425;29;20411;-91
2022/09/08 11:21:45;;;;;;;10.07;6.22;;;;;;;;;;4929392;29;20044;-90
2022/09/08 11:24:15;;;;;;;11.63;6.15;;;;;;;;;;4913559;29;20123;-90
2022/09/08 11:26:44;;;;;;;11.82;6.43;;;;;;;;;;4914549;29;20028;-91
2022/09/08 11:29:12;;;;;;;21.23;5.65;;;;;;;;;;4914464;29;20126;-90
2022/09/08 11:31:51;;;;;;;11.55;5.20;;;;;;;;;;4916175;29;20035;-90
2022/09/08 11:34:36;;;;;;;6.72;4.35;;;;;;;;;;4913777;29;20027;-89
2022/09/08 11:37:05;;;;;;;9.05;4.40;;;;;;;;;;4906508;29;20032;-90
2022/09/08 11:39:47;;;;;;;5.28;2.97;;;;;;;;;;4933128;29;20063;-90
2022/09/08 11:42:17;;;;;;;6.20;2.70;;;;;;;;;;4918749;29;20039;-89
2022/09/08 11:45:02;;;;;;;4.57;2.67;;;;;;;;;;4911834;29;20031;-90
2022/09/08 11:47:37;;;;;;;11.38;3.03;;;;;;;;;;4929865;29;20028;-89
2022/09/08 11:50:21;;;;;;;6.10;2.80;;;;;;;;;;4915373;29;20046;-90
2022/09/08 11:52:51;;;;;;;5.28;2.90;;;;;;;;;;4917707;29;20118;-90
2022/09/08 11:55:28;;;;;;;9.02;3.45;;;;;;;;;;4927151;29;20024;-89
2022/09/08 11:58:18;;;;;;;11.63;2.85;;;;;;;;;;4916127;29;20686;-89
2022/09/08 12:00:51;;;;;;;3.28;2.45;;;;;;;;;;4915733;29;20034;-89
2022/09/08 12:03:17;;;;;;;4.93;2.85;;;;;;;;;;4912627;29;20541;-90
2022/09/08 12:05:46;;;;;;;4.72;2.80;;;;;;;;;;4916236;29;20036;-89
2022/09/08 12:08:30;;;;;;;3.55;2.70;;;;;;;;;;4915636;29;20023;-90
2022/09/08 12:11:11;;;;;;;11.95;3.15;;;;;;;;;;4914510;29;20024;-90
2022/09/08 12:13:50;;;;;;;8.55;2.97;;;;;;;;;;4913928;29;20036;-90
2022/09/08 12:16:31;;;;;;;7.13;2.75;;;;;;;;;;4929418;29;20043;-90
2022/09/08 12:19:11;;;;;;;8.88;3.35;;;;;;;;;;4922581;29;20040;-90
2022/09/08 12:21:54;;;;;;;11.85;3.58;;;;;;;;;;4909874;29;20047;-90
2022/09/08 12:24:48;;;;;;;4.60;3.28;;;;;;;;;;4912768;29;20039;-90
2022/09/08 12:27:39;;;;;;;8.30;2.97;;;;;;;;;;4920032;29;20074;-90
2022/09/08 12:30:20;;;;;;;12.75;3.22;;;;;;;;;;4936508;29;20130;-91
2022/09/08 12:33:14;;;;;;;6.10;3.35;;;;;;;;;;4938090;29;20145;-90
2022/09/08 12:35:51;;;;;;;8.48;3.50;;;;;;;;;;4922816;29;20060;-90
2022/09/08 12:38:40;;;;;;;16.05;4.18;;;;;;;;;;4934690;29;20054;-90
2022/09/08 12:41:21;;;;;;;9.68;3.85;;;;;;;;;;4918268;29;20028;-90
2022/09/08 12:43:47;;;;;;;4.38;3.03;;;;;;;;;;4901095;29;20065;-89
2022/09/08 12:46:25;;;;;;;9.55;3.92;;;;;;;;;;4884305;29;20060;-89
2022/09/08 12:49:16;;;;;;;6.10;3.63;;;;;;;;;;4888552;29;20057;-89
2022/09/08 12:51:55;;;;;;;12.40;4.25;;;;;;;;;;4902596;29;20071;-90
2022/09/08 12:54:42;;;;;;;8.50;3.53;;;;;;;;;;4886754;29;20102;-89
2022/09/08 12:57:23;;;;;;;5.75;3.85;;;;;;;;;;4900002;29;20033;-90
2022/09/08 13:00:09;;;;;;;9.73;4.05;;;;;;;;;;4886700;29;20045;-89
2022/09/08 13:02:46;;;;;;;16.25;3.63;;;;;;;;;;4898175;29;20025;-90
2022/09/08 13:05:35;;;;;;;12.65;4.10;;;;;;;;;;4893768;29;20047;-89
2022/09/08 13:08:06;;;;;;;9.82;3.80;;;;;;;;;;4895876;29;20029;-90
2022/09/08 13:10:44;;;;;;;6.32;3.53;;;;;;;;;;4883353;29;20047;-89
2022/09/08 13:13:11;;;;;;;8.07;3.90;;;;;;;;;;4895720;29;20139;-90
2022/09/08 13:15:55;;;;;;;9.82;3.97;;;;;;;;;;4913974;29;20051;-89
2022/09/08 13:18:29;;;;;;;8.05;4.53;;;;;;;;;;4919697;29;20272;-90
2022/09/08 13:21:05;;;;;;;10.57;5.00;;;;;;;;;;4936383;28;20495;-90
2022/09/08 13:23:44;;;;;;;13.70;4.93;;;;;;;;;;4942375;29;20047;-90
2022/09/08 13:26:27;;;;;;;7.87;4.50;;;;;;;;;;4947711;29;20031;-89
2022/09/08 13:29:29;;;;;;;10.98;4.85;;;;;;;;;;4938749;29;20286;-90
2022/09/08 13:32:22;;;;;;;14.93;5.75;;;;;;;;;;4931465;29;20619;-90
2022/09/08 13:34:57;;;;;;;9.98;4.93;;;;;;;;;;4932172;29;20028;-89
2022/09/08 13:37:48;;;;;;;14.25;5.40;;;;;;;;;;4929456;29;20023;-90
2022/09/08 13:40:33;;;;;;;9.52;4.70;;;;;;;;;;4942036;29;20039;-90
2022/09/08 13:43:04;;;;;;;11.23;5.10;;;;;;;;;;4941430;29;20047;-90
2022/09/08 13:45:50;;;;;;;14.95;6.13;;;;;;;;;;4951928;29;20062;-90
2022/09/08 13:48:52;;;;;;;13.73;5.18;;;;;;;;;;4943225;29;20023;-90
2022/09/08 13:51:58;;;;;;;10.82;5.20;;;;;;;;;;4946711;29;20059;-89
2022/09/08 13:54:54;;;;;;;9.98;5.45;;;;;;;;;;4938405;29;20035;-90
2022/09/08 13:57:48;;;;;;;36.37;5.53;;;;;;;;;;4941222;29;20038;-90
2022/09/08 14:00:18;;;;;;;10.15;5.20;;;;;;;;;;4942796;29;20034;-89
2022/09/08 14:02:51;;;;;;;9.00;5.00;;;;;;;;;;4948042;28;20455;-90
2022/09/08 14:05:23;;;;;;;10.38;6.07;;;;;;;;;;4944829;29;20367;-89
2022/09/08 14:07:56;;;;;;;13.98;6.40;;;;;;;;;;4953826;28;20054;-90
2022/09/08 14:10:30;;;;;;;10.48;6.07;;;;;;;;;;4933188;29;20039;-91
2022/09/08 14:13:02;;;;;;;12.85;6.20;;;;;;;;;;4952515;29;20031;-89
2022/09/08 14:15:28;;;;;;;14.50;5.55;;;;;;;;;;4950323;29;20040;-91
2022/09/08 14:18:01;;;;;;;11.20;6.45;;;;;;;;;;4933263;29;20404;-91
2022/09/08 14:20:36;;;;;;;18.48;7.07;;;;;;;;;;4933037;28;20549;-90
2022/09/08 14:23:21;;;;;;;9.38;6.20;;;;;;;;;;4936282;29;20861;-90
2022/09/08 14:26:15;;;;;;;10.20;6.28;;;;;;;;;;4906966;29;20076;-89
2022/09/08 14:28:54;;;;;;;13.43;6.60;;;;;;;;;;4897546;29;20041;-89
2022/09/08 14:31:31;;;;;;;11.35;6.82;;;;;;;;;;4901642;29;20804;-91
2022/09/08 14:34:10;;;;;;;13.25;6.57;;;;;;;;;;4908559;29;20085;-90
2022/09/08 14:36:52;;;;;;;14.00;7.20;;;;;;;;;;4894901;29;20077;-88
2022/09/08 14:39:30;;;;;;;11.45;7.40;;;;;;;;;;4893595;29;20080;-89
2022/09/08 14:42:00;;;;;;;11.38;6.90;;;;;;;;;;4908844;29;20161;-91
2022/09/08 14:44:44;;;;;;;13.20;7.15;;;;;;;;;;4900963;29;20284;-89
2022/09/08 14:50:44;;;;;;;18.27;8.95;;;;;;;;;;4845997;29;20034;-90
2022/09/08 14:53:22;;;;;;;14.52;7.60;;;;;;;;;;4843450;29;20030;-90
2022/09/08 14:56:05;;;;;;;9.60;7.38;;;;;;;;;;4889254;29;20050;-91
2022/09/08 14:58:44;;;;;;;13.95;8.60;;;;;;;;;;4940734;29;20520;-89
2022/09/08 15:01:19;;;;;;;13.07;8.13;;;;;;;;;;4947002;29;20450;-89
2022/09/08 15:03:51;;;;;;;14.98;8.25;;;;;;;;;;4943247;29;20032;-88
2022/09/08 15:06:34;;;;;;;12.75;7.95;;;;;;;;;;4947154;29;20221;-90
2022/09/08 15:09:33;;;;;;;17.55;9.02;;;;;;;;;;4949354;29;20434;-89
2022/09/08 15:12:25;;;;;;;15.02;9.02;;;;;;;;;;4895980;29;20060;-88
2022/09/08 15:15:01;;;;;;;14.13;8.45;;;;;;;;;;4940009;29;20042;-89
2022/09/08 15:20:27;;;;;;;16.27;9.30;;;;;;;;;;4920398;28;20040;-90
2022/09/08 15:23:02;;;;;;;15.93;9.75;;;;;;;;;;4929891;29;20043;-90
2022/09/08 15:25:32;;;;;;;18.80;10.90;;;;;;;;;;4933822;29;20146;-88
2022/09/08 15:28:02;;;;;;;17.27;10.70;;;;;;;;;;4933091;29;20042;-90
2022/09/08 15:30:29;;;;;;;18.15;10.23;;;;;;;;;;4932009;29;20507;-89
2022/09/08 15:32:55;;;;;;;20.05;10.68;;;;;;;;;;4915124;29;20050;-90
2022/09/08 15:35:21;;;;;;;17.50;9.82;;;;;;;;;;4930904;29;20027;-89
2022/09/08 15:38:23;;;;;;;11.52;8.52;;;;;;;;;;4928694;28;20038;-89
2022/09/08 15:41:08;;;;;;;14.00;10.05;;;;;;;;;;4837522;29;20434;-89
2022/09/08 15:43:37;;;;;;;16.30;10.38;;;;;;;;;;4925288;28;20031;-89
2022/09/08 15:46:22;;;;;;;13.80;10.43;;;;;;;;;;4932723;29;20118;-89
2022/09/08 15:49:20;;;;;;;20.25;10.90;;;;;;;;;;4929382;29;20067;-89
2022/09/08 15:52:07;;;;;;;20.75;10.57;;;;;;;;;;4896274;28;20135;-90
2022/09/08 15:54:41;;;;;;;19.67;10.70;;;;;;;;;;4927987;28;20050;-90
2022/09/08 15:57:25;;;;;;;20.17;11.25;;;;;;;;;;4934969;29;20087;-89
2022/09/08 15:59:58;;;;;;;19.85;11.30;;;;;;;;;;4925205;29;20074;-89